createdAt,value
2023-03-22T00:02:21.064Z,7.47
2023-03-22T00:04:50.651Z,5.70
2023-03-22T00:07:20.377Z,7.30
2023-03-22T00:09:50.063Z,5.88
2023-03-22T00:12:19.635Z,7.65
2023-03-22T00:14:52.594Z,5.15
2023-03-22T00:17:23.113Z,5.20
2023-03-22T00:19:54.738Z,4.82
2023-03-22T00:22:24.546Z,6.40
2023-03-22T00:24:54.129Z,5.75
2023-03-22T00:27:23.658Z,5.45
2023-03-22T00:29:56.988Z,7.25
2023-03-22T00:32:28.035Z,5.65
2023-03-22T00:34:57.609Z,7.13
2023-03-22T00:37:34.002Z,6.05
2023-03-22T00:40:04.733Z,6.05
2023-03-22T00:42:34.333Z,5.35
2023-03-22T00:45:07.336Z,6.40
2023-03-22T00:47:37.085Z,7.05
2023-03-22T00:50:08.705Z,7.82
2023-03-22T00:52:38.712Z,7.80
2023-03-22T00:55:09.248Z,5.97
2023-03-22T00:57:38.791Z,8.02
2023-03-22T01:00:16.255Z,10.25
2023-03-22T01:02:48.324Z,7.15
2023-03-22T01:05:23.275Z,8.27
2023-03-22T01:07:55.118Z,7.85
2023-03-22T01:10:24.706Z,7.57
2023-03-22T01:12:54.442Z,6.78
2023-03-22T01:15:26.779Z,7.80
2023-03-22T01:17:56.549Z,7.90
2023-03-22T01:20:26.370Z,7.43
2023-03-22T01:22:56.049Z,7.93
2023-03-22T01:25:25.819Z,10.40
2023-03-22T01:27:55.490Z,9.63
2023-03-22T01:30:27.795Z,9.00
2023-03-22T01:32:57.367Z,11.05
2023-03-22T01:35:27.136Z,10.85
2023-03-22T01:37:56.679Z,11.95
2023-03-22T01:40:26.547Z,14.13
2023-03-22T01:42:56.285Z,10.77
2023-03-22T01:45:38.288Z,11.65
2023-03-22T01:48:15.021Z,11.20
2023-03-22T01:50:48.780Z,10.13
2023-03-22T01:53:23.733Z,12.07
2023-03-22T01:55:54.843Z,10.17
2023-03-22T01:58:30.132Z,12.43
2023-03-22T02:01:08.155Z,11.77
2023-03-22T02:03:55.940Z,11.52
2023-03-22T02:06:32.441Z,10.10
2023-03-22T02:09:11.904Z,13.02
2023-03-22T02:11:45.024Z,13.07
2023-03-22T02:14:34.248Z,10.70
2023-03-22T02:17:39.936Z,16.63
2023-03-22T02:20:45.377Z,14.93
2023-03-22T02:23:40.840Z,14.63
2023-03-22T02:26:34.113Z,15.52
2023-03-22T02:29:12.747Z,13.77
2023-03-22T02:32:21.989Z,12.90
2023-03-22T02:35:22.492Z,11.88
2023-03-22T02:38:13.788Z,16.23
2023-03-22T02:40:53.120Z,13.02
2023-03-22T02:43:34.415Z,14.57
2023-03-22T02:46:10.300Z,15.07
2023-03-22T02:51:20.297Z,14.50
2023-03-22T02:53:53.988Z,13.75
2023-03-22T02:56:31.452Z,14.73
2023-03-22T02:59:04.333Z,15.73
2023-03-22T03:01:39.026Z,14.57
2023-03-22T03:04:13.325Z,15.55
2023-03-22T03:06:47.540Z,16.85
2023-03-22T03:09:20.662Z,15.00
2023-03-22T03:11:55.483Z,15.20
2023-03-22T03:14:27.033Z,13.65
2023-03-22T03:17:13.896Z,15.25
2023-03-22T03:19:52.847Z,15.50
2023-03-22T03:22:39.665Z,16.42
2023-03-22T03:25:18.390Z,15.80
2023-03-22T03:27:57.581Z,14.73
2023-03-22T03:30:33.613Z,13.20
2023-03-22T03:33:09.333Z,15.30
2023-03-22T03:35:43.783Z,16.30
2023-03-22T03:38:18.660Z,17.27
2023-03-22T03:40:52.208Z,13.43
2023-03-22T03:43:27.595Z,15.13
2023-03-22T03:45:58.106Z,15.23
2023-03-22T03:48:32.380Z,16.55
2023-03-22T03:51:04.093Z,13.73
2023-03-22T03:53:34.486Z,13.70
2023-03-22T03:56:04.138Z,17.42
2023-03-22T03:58:42.451Z,13.23
2023-03-22T04:01:12.475Z,13.88
2023-03-22T04:03:55.452Z,13.70
2023-03-22T04:06:38.001Z,16.45
2023-03-22T04:09:12.257Z,15.13
2023-03-22T04:11:46.646Z,14.80
2023-03-22T04:14:19.937Z,14.20
2023-03-22T04:16:52.211Z,13.50
2023-03-22T04:19:24.832Z,16.42
2023-03-22T04:21:54.594Z,13.52
2023-03-22T04:24:24.908Z,14.20
2023-03-22T04:26:55.363Z,13.73
2023-03-22T04:29:36.319Z,13.52
2023-03-22T04:32:26.882Z,11.75
2023-03-22T04:34:58.303Z,15.75
2023-03-22T04:37:28.526Z,16.08
2023-03-22T04:40:16.455Z,15.65
2023-03-22T04:43:10.281Z,14.18
2023-03-22T04:45:58.423Z,14.43
2023-03-22T04:48:35.242Z,18.02
2023-03-22T04:51:06.744Z,14.18
2023-03-22T04:53:42.213Z,14.85
2023-03-22T04:56:15.503Z,13.63
2023-03-22T04:58:47.408Z,19.25
2023-03-22T05:01:20.803Z,13.00
2023-03-22T05:03:57.303Z,16.23
2023-03-22T05:06:27.452Z,12.60
2023-03-22T05:09:07.380Z,14.98
2023-03-22T05:11:37.501Z,11.30
2023-03-22T05:14:23.069Z,15.20
2023-03-22T05:16:55.343Z,13.40
2023-03-22T05:19:25.120Z,12.60
2023-03-22T05:21:58.331Z,14.32
2023-03-22T05:24:39.715Z,12.60
2023-03-22T05:27:14.369Z,15.55
2023-03-22T05:29:46.827Z,13.70
2023-03-22T05:32:29.389Z,13.82
2023-03-22T05:35:03.643Z,14.07
2023-03-22T05:37:38.350Z,16.80
2023-03-22T05:40:10.233Z,12.57
2023-03-22T05:42:44.595Z,21.73
2023-03-22T05:45:28.015Z,14.23
2023-03-22T05:48:09.269Z,14.65
2023-03-22T05:50:40.091Z,15.15
2023-03-22T05:53:09.968Z,19.80
2023-03-22T05:55:48.055Z,14.75
2023-03-22T05:58:19.162Z,13.95
2023-03-22T06:00:51.745Z,16.13
2023-03-22T06:03:26.598Z,22.45
2023-03-22T06:06:11.873Z,13.48
2023-03-22T06:08:48.283Z,15.85
2023-03-22T06:11:19.343Z,15.35
2023-03-22T06:13:49.738Z,12.52
2023-03-22T06:16:21.201Z,15.60
2023-03-22T06:18:53.517Z,22.63
2023-03-22T06:21:23.557Z,15.73
2023-03-22T06:23:53.164Z,14.30
2023-03-22T06:26:25.951Z,18.58
2023-03-22T06:28:55.580Z,14.73
2023-03-22T06:31:25.317Z,13.23
2023-03-22T06:34:01.475Z,14.57
2023-03-22T06:36:38.222Z,15.98
2023-03-22T06:39:11.854Z,12.98
2023-03-22T06:41:44.106Z,14.05
2023-03-22T06:44:13.973Z,12.70
2023-03-22T06:47:01.980Z,12.35
2023-03-22T06:49:57.371Z,13.65
2023-03-22T06:52:31.140Z,11.02
2023-03-22T06:55:00.748Z,17.65
2023-03-22T06:57:30.384Z,12.73
2023-03-22T06:59:59.945Z,10.70
2023-03-22T07:02:29.541Z,23.35
2023-03-22T07:05:22.444Z,12.00
2023-03-22T07:07:52.227Z,13.75
2023-03-22T07:10:22.096Z,14.13
2023-03-22T07:12:52.970Z,9.35
2023-03-22T07:15:24.682Z,14.48
2023-03-22T07:18:07.987Z,14.77
2023-03-22T07:20:41.833Z,12.43
2023-03-22T07:23:13.178Z,12.80
2023-03-22T07:25:52.129Z,11.50
2023-03-22T07:28:27.211Z,12.60
2023-03-22T07:31:05.870Z,11.40
2023-03-22T07:33:48.372Z,12.90
2023-03-22T07:36:23.882Z,14.18
2023-03-22T07:38:54.291Z,14.20
2023-03-22T07:41:33.314Z,13.82
2023-03-22T07:44:27.907Z,12.38
2023-03-22T07:47:20.310Z,10.63
2023-03-22T07:50:06.815Z,15.13
2023-03-22T07:52:39.256Z,17.90
2023-03-22T07:55:09.889Z,14.52
2023-03-22T07:57:39.797Z,14.68
2023-03-22T08:00:12.025Z,11.32
2023-03-22T08:02:56.696Z,16.15
2023-03-22T08:05:47.293Z,12.90
2023-03-22T08:08:20.731Z,15.23
2023-03-22T08:10:53.811Z,12.73
2023-03-22T08:13:23.499Z,12.23
2023-03-22T08:15:53.431Z,13.60
2023-03-22T08:18:23.301Z,14.27
2023-03-22T08:20:56.969Z,10.20
2023-03-22T08:23:41.416Z,11.98
2023-03-22T08:26:30.529Z,14.60
2023-03-22T08:29:06.022Z,12.40
2023-03-22T08:31:39.214Z,9.13
2023-03-22T08:34:08.903Z,9.73
2023-03-22T08:36:39.624Z,11.98
2023-03-22T08:39:12.333Z,8.32
2023-03-22T08:41:49.823Z,12.15
2023-03-22T08:44:19.483Z,9.95
2023-03-22T08:46:49.291Z,8.77
2023-03-22T08:49:18.903Z,17.40
2023-03-22T08:51:58.988Z,11.38
2023-03-22T08:54:46.432Z,26.92
2023-03-22T08:57:36.456Z,8.40
2023-03-22T09:00:42.490Z,7.38
2023-03-22T09:03:25.123Z,6.85
2023-03-22T09:05:55.361Z,8.65
2023-03-22T09:08:25.118Z,9.52
2023-03-22T09:11:04.208Z,7.28
2023-03-22T09:13:34.799Z,9.05
2023-03-22T09:16:08.908Z,8.85
2023-03-22T09:18:38.918Z,9.70
2023-03-22T09:21:14.873Z,11.73
2023-03-22T09:23:58.125Z,9.13
2023-03-22T09:26:41.779Z,11.82
2023-03-22T09:29:11.560Z,6.60
2023-03-22T09:31:43.531Z,8.60
2023-03-22T09:34:33.405Z,6.35
2023-03-22T09:37:04.293Z,7.35
2023-03-22T09:39:44.725Z,6.10
2023-03-22T09:42:28.941Z,8.57
2023-03-22T09:45:00.882Z,5.38
2023-03-22T09:47:44.191Z,8.82
2023-03-22T09:50:18.627Z,7.13
2023-03-22T09:52:48.640Z,5.45
2023-03-22T09:55:23.807Z,9.05
2023-03-22T09:58:04.370Z,10.35
2023-03-22T10:00:43.056Z,5.90
2023-03-22T10:03:24.668Z,5.60
2023-03-22T10:06:00.140Z,3.78
2023-03-22T10:08:41.146Z,7.68
2023-03-22T10:11:23.478Z,4.05
2023-03-22T10:14:03.537Z,5.82
2023-03-22T10:16:36.989Z,4.18
2023-03-22T10:19:10.911Z,5.93
2023-03-22T10:21:40.985Z,5.93
2023-03-22T10:24:17.927Z,15.15
2023-03-22T10:26:49.982Z,7.80
2023-03-22T10:29:29.185Z,7.32
2023-03-22T10:31:59.245Z,18.92
2023-03-22T10:34:31.961Z,6.80
2023-03-22T10:37:06.801Z,5.35
2023-03-22T10:39:40.056Z,5.63
2023-03-22T10:42:14.133Z,11.38
2023-03-22T10:44:51.393Z,4.38
2023-03-22T10:47:32.306Z,5.80
2023-03-22T10:50:07.290Z,8.32
2023-03-22T10:52:43.111Z,7.57
2023-03-22T10:55:15.562Z,7.15
2023-03-22T10:57:49.170Z,6.72
2023-03-22T11:00:25.502Z,24.60
2023-03-22T11:03:00.934Z,4.22
2023-03-22T11:05:32.463Z,10.32
2023-03-22T11:08:06.770Z,6.15
2023-03-22T11:10:36.613Z,5.45
2023-03-22T11:13:21.615Z,6.72
2023-03-22T11:16:02.518Z,4.28
2023-03-22T11:18:34.167Z,4.85
2023-03-22T11:21:08.951Z,2.70
2023-03-22T11:23:41.312Z,4.03
2023-03-22T11:26:13.465Z,4.43
2023-03-22T11:28:49.110Z,4.28
2023-03-22T11:31:24.693Z,5.32
2023-03-22T11:33:59.682Z,4.95
2023-03-22T11:36:31.008Z,3.60
2023-03-22T11:39:02.641Z,3.88
2023-03-22T11:41:33.742Z,4.05
2023-03-22T11:44:05.757Z,4.70
2023-03-22T11:46:39.124Z,3.88
2023-03-22T11:49:12.013Z,4.10
2023-03-22T11:51:42.700Z,4.05
2023-03-22T11:54:19.521Z,3.83
2023-03-22T11:56:51.568Z,3.65
2023-03-22T11:59:26.819Z,4.15
2023-03-22T12:02:05.661Z,5.53
2023-03-22T12:04:41.012Z,4.78
2023-03-22T12:07:19.498Z,5.60
2023-03-22T12:09:54.636Z,3.58
2023-03-22T12:12:30.553Z,4.88
2023-03-22T12:15:06.410Z,4.55
2023-03-22T12:20:20.876Z,3.70
2023-03-22T12:22:54.761Z,4.72
2023-03-22T12:25:27.640Z,9.55
2023-03-22T12:28:00.467Z,6.65
2023-03-22T12:30:33.685Z,14.23
2023-03-22T12:33:11.974Z,5.22
2023-03-22T12:35:45.863Z,7.18
2023-03-22T12:38:28.201Z,5.00
2023-03-22T12:40:59.712Z,8.07
2023-03-22T12:43:42.749Z,3.90
2023-03-22T12:46:20.943Z,4.43
2023-03-22T12:48:56.604Z,3.83
2023-03-22T12:51:26.251Z,3.00
2023-03-22T12:53:58.756Z,3.72
2023-03-22T12:56:41.758Z,9.23
2023-03-22T12:59:19.365Z,3.25
2023-03-22T13:01:54.348Z,5.95
2023-03-22T13:04:35.819Z,8.20
2023-03-22T13:07:16.813Z,3.50
2023-03-22T13:09:47.856Z,5.68
2023-03-22T13:12:35.416Z,4.40
2023-03-22T13:15:41.212Z,8.57
2023-03-22T13:18:33.532Z,5.70
2023-03-22T13:21:17.367Z,5.63
2023-03-22T13:24:00.727Z,5.70
2023-03-22T13:26:36.527Z,6.40
2023-03-22T13:29:13.669Z,4.60
2023-03-22T13:31:46.979Z,4.28
2023-03-22T13:34:20.047Z,3.40
2023-03-22T13:36:58.436Z,14.45
2023-03-22T13:39:28.409Z,6.88
2023-03-22T13:42:09.913Z,4.53
2023-03-22T13:44:43.926Z,4.00
2023-03-22T13:47:36.490Z,6.35
2023-03-22T13:50:13.086Z,5.10
2023-03-22T13:52:48.862Z,3.65
2023-03-22T13:55:41.363Z,11.82
2023-03-22T13:58:14.082Z,9.57
2023-03-22T14:00:52.377Z,6.22
2023-03-22T14:03:31.247Z,7.80
2023-03-22T14:06:10.257Z,3.95
2023-03-22T14:08:44.441Z,21.50
2023-03-22T14:11:23.438Z,6.07
2023-03-22T14:13:57.640Z,7.15
2023-03-22T14:16:37.779Z,4.97
2023-03-22T14:19:09.026Z,6.72
2023-03-22T14:21:42.059Z,7.13
2023-03-22T14:52:21.608Z,4.43
2023-03-22T14:54:59.503Z,2.60
2023-03-22T14:57:35.118Z,2.88
2023-03-22T15:00:16.272Z,5.18
2023-03-22T15:02:49.610Z,8.13
2023-03-22T15:05:21.728Z,4.00
2023-03-22T15:07:54.177Z,3.75
2023-03-22T15:10:29.288Z,3.92
2023-03-22T15:13:00.595Z,5.80
2023-03-22T15:15:33.911Z,5.95
2023-03-22T15:18:05.167Z,6.88
2023-03-22T15:20:38.609Z,4.15
2023-03-22T15:23:18.398Z,3.42
2023-03-22T15:25:58.609Z,8.32
2023-03-22T15:28:30.604Z,5.28
2023-03-22T15:31:03.799Z,6.45
2023-03-22T15:33:37.548Z,4.15
2023-03-22T15:36:09.786Z,3.83
2023-03-22T15:38:46.929Z,5.40
2023-03-22T15:41:27.851Z,4.25
2023-03-22T15:44:08.244Z,6.95
2023-03-22T15:46:52.482Z,3.63
2023-03-22T15:49:24.232Z,4.03
2023-03-22T15:51:54.128Z,1.85
2023-03-22T15:54:33.500Z,3.65
2023-03-22T15:57:19.907Z,3.90
2023-03-22T15:59:55.716Z,4.65
2023-03-22T16:02:32.216Z,1.95
2023-03-22T16:05:03.148Z,7.28
2023-03-22T16:07:33.329Z,3.30
2023-03-22T16:10:03.143Z,2.08
2023-03-22T16:12:35.644Z,1.58
2023-03-22T16:15:05.423Z,4.38
2023-03-22T16:17:35.824Z,2.72
2023-03-22T16:20:06.624Z,5.47
2023-03-22T16:22:36.800Z,2.22
2023-03-22T16:25:07.579Z,1.77
2023-03-22T16:27:39.981Z,2.38
2023-03-22T16:30:13.814Z,3.22
2023-03-22T16:32:45.299Z,6.30
2023-03-22T16:35:18.928Z,4.75
2023-03-22T16:37:48.970Z,2.00
2023-03-22T16:40:21.163Z,6.63
2023-03-22T16:42:53.428Z,3.55
2023-03-22T16:45:26.092Z,2.60
2023-03-22T16:47:57.727Z,2.28
2023-03-22T16:50:29.579Z,6.63
2023-03-22T16:53:00.023Z,7.25
2023-03-22T16:55:31.377Z,4.75
2023-03-22T16:58:04.245Z,4.07
2023-03-22T17:00:34.570Z,5.18
2023-03-22T17:03:07.886Z,5.43
2023-03-22T17:05:39.364Z,7.68
2023-03-22T17:08:19.530Z,4.53
2023-03-22T17:10:49.961Z,11.48
2023-03-22T17:13:22.328Z,8.57
2023-03-22T17:15:53.109Z,4.82
2023-03-22T17:18:22.854Z,9.27
2023-03-22T17:20:52.940Z,6.68
2023-03-22T17:23:23.036Z,7.00
2023-03-22T17:25:53.658Z,3.25
2023-03-22T17:28:27.533Z,5.70
2023-03-22T17:30:57.869Z,6.43
2023-03-22T17:33:30.009Z,4.97
2023-03-22T17:36:00.535Z,6.10
2023-03-22T17:38:34.720Z,17.30
2023-03-22T17:41:14.641Z,6.50
2023-03-22T17:43:47.043Z,10.63
2023-03-22T17:46:50.383Z,9.02
2023-03-22T17:49:07.292Z,4.03
2023-03-22T17:51:36.929Z,6.28
2023-03-22T17:54:48.887Z,6.90
2023-03-22T17:59:37.432Z,6.55
2023-03-22T18:02:07.347Z,6.53
2023-03-22T18:04:37.899Z,19.42
2023-03-22T18:07:07.675Z,6.88
2023-03-22T18:09:38.281Z,3.80
2023-03-22T18:12:08.391Z,6.40
2023-03-22T18:14:41.393Z,5.15
2023-03-22T18:17:12.826Z,3.58
2023-03-22T18:20:07.349Z,3.97
2023-03-22T18:22:33.188Z,3.47
2023-03-22T18:25:03.573Z,2.95
2023-03-22T18:27:45.891Z,2.95
2023-03-22T18:30:22.148Z,5.35
2023-03-22T18:33:05.692Z,4.50
2023-03-22T18:35:35.885Z,3.17
2023-03-22T18:38:07.528Z,3.97
2023-03-22T18:41:20.046Z,3.60
2023-03-22T18:43:26.916Z,4.95
2023-03-22T18:46:08.157Z,2.45
2023-03-22T18:48:47.079Z,1.92
2023-03-22T18:51:17.184Z,1.55
2023-03-22T18:53:46.843Z,1.85
2023-03-22T18:56:17.900Z,3.17
2023-03-22T18:58:48.005Z,2.45
2023-03-22T19:01:21.772Z,2.83
2023-03-22T19:03:52.588Z,2.70
2023-03-22T19:06:23.109Z,2.25
2023-03-22T19:08:53.018Z,3.50
2023-03-22T19:11:22.814Z,2.28
2023-03-22T19:16:38.685Z,3.85
2023-03-22T19:19:08.788Z,4.05
2023-03-22T19:21:38.898Z,4.38
2023-03-22T19:24:10.046Z,1.67
2023-03-22T19:26:41.482Z,8.18
2023-03-22T19:29:17.597Z,2.05
2023-03-22T19:31:49.937Z,5.32
2023-03-22T19:34:19.669Z,2.00
2023-03-22T19:36:49.426Z,1.58
2023-03-22T19:39:22.349Z,2.08
2023-03-22T19:42:05.200Z,2.35
2023-03-22T19:44:36.344Z,2.25
2023-03-22T19:47:13.588Z,1.38
2023-03-22T19:49:46.058Z,2.15
2023-03-22T19:52:16.781Z,1.25
2023-03-22T19:54:46.988Z,1.80
2023-03-22T19:57:17.129Z,1.85
2023-03-22T20:00:00.726Z,1.70
2023-03-22T20:02:39.402Z,2.05
2023-03-22T20:05:16.988Z,1.60
2023-03-22T20:07:47.721Z,3.25
2023-03-22T20:10:17.412Z,3.97
2023-03-22T20:12:47.177Z,2.15
2023-03-22T20:15:17.309Z,2.28
2023-03-22T20:17:49.884Z,1.70
2023-03-22T20:20:19.702Z,4.35
2023-03-22T20:22:51.034Z,9.98
2023-03-22T20:25:21.347Z,1.80
2023-03-22T20:27:52.933Z,5.72
2023-03-22T20:30:23.532Z,5.15
2023-03-22T20:32:56.396Z,3.70
2023-03-22T20:35:26.083Z,3.60
2023-03-22T20:37:56.296Z,2.83
2023-03-22T20:40:26.614Z,3.70
2023-03-22T20:42:56.840Z,4.93
2023-03-22T20:45:26.788Z,3.17
2023-03-22T20:47:59.290Z,19.55
2023-03-22T20:50:29.004Z,25.88
2023-03-22T20:52:59.079Z,6.38
2023-03-22T20:55:29.396Z,4.38
2023-03-22T20:57:59.220Z,6.05
2023-03-22T21:00:29.172Z,4.50
2023-03-22T21:03:01.605Z,6.10
2023-03-22T21:05:31.362Z,5.63
2023-03-22T21:08:01.246Z,5.15
2023-03-22T21:10:31.089Z,8.27
2023-03-22T21:13:00.984Z,3.20
2023-03-22T21:15:30.927Z,3.55
2023-03-22T21:18:03.322Z,6.30
2023-03-22T21:20:33.133Z,2.92
2023-03-22T21:23:02.800Z,7.88
2023-03-22T21:25:32.475Z,11.23
2023-03-22T21:28:03.657Z,5.13
2023-03-22T21:30:33.978Z,11.63
2023-03-22T21:33:06.420Z,2.28
2023-03-22T21:35:36.472Z,2.45
2023-03-22T21:38:10.202Z,9.80
2023-03-22T21:40:41.101Z,2.55
2023-03-22T21:43:10.832Z,2.58
2023-03-22T21:45:40.706Z,5.75
2023-03-22T21:48:14.268Z,6.20
2023-03-22T21:50:45.928Z,7.38
2023-03-22T21:53:16.557Z,6.20
2023-03-22T21:55:47.082Z,7.43
2023-03-22T21:58:17.253Z,6.57
2023-03-22T22:00:47.912Z,3.70
2023-03-22T22:03:20.693Z,2.78
2023-03-22T22:05:51.418Z,3.72
2023-03-22T22:08:21.961Z,2.58
2023-03-22T22:10:57.106Z,4.50
2023-03-22T22:13:27.935Z,2.40
2023-03-22T22:15:58.892Z,3.17
2023-03-22T22:18:32.073Z,1.70
2023-03-22T22:21:03.561Z,1.83
2023-03-22T22:23:35.146Z,2.00
2023-03-22T22:26:05.324Z,2.17
2023-03-22T22:28:35.446Z,2.70
2023-03-22T22:31:09.681Z,5.82
2023-03-22T22:33:42.872Z,6.65
2023-03-22T22:36:13.048Z,2.22
2023-03-22T22:38:43.624Z,8.30
2023-03-22T22:41:16.153Z,1.17
2023-03-22T22:43:46.325Z,5.05
2023-03-22T22:46:16.914Z,2.10
2023-03-22T22:48:49.194Z,2.55
2023-03-22T22:51:21.726Z,1.13
2023-03-22T22:53:51.607Z,2.58
2023-03-22T22:56:23.162Z,0.82
2023-03-22T22:58:53.421Z,1.58
2023-03-22T23:01:23.498Z,3.47
2023-03-22T23:03:55.930Z,1.23
2023-03-22T23:06:26.382Z,4.00
2023-03-22T23:09:01.785Z,1.80
2023-03-22T23:11:32.852Z,3.72
2023-03-22T23:14:06.316Z,6.93
2023-03-22T23:16:39.280Z,4.78
2023-03-22T23:19:11.678Z,11.55
2023-03-22T23:21:41.892Z,13.05
2023-03-22T23:24:14.570Z,3.92
2023-03-22T23:26:48.177Z,5.40
2023-03-22T23:29:18.973Z,2.63
2023-03-22T23:31:48.695Z,2.17
2023-03-22T23:34:21.439Z,7.15
2023-03-22T23:36:52.264Z,3.80
2023-03-22T23:39:23.645Z,3.65
2023-03-22T23:41:54.069Z,1.80
2023-03-22T23:44:23.956Z,3.13
2023-03-22T23:46:53.606Z,4.05
2023-03-22T23:49:26.651Z,2.88
2023-03-22T23:51:56.703Z,4.25
2023-03-22T23:54:26.428Z,2.88
2023-03-22T23:56:56.085Z,1.67
2023-03-22T23:59:25.953Z,3.40
